sensor_id;sensor_type;location;lat;lon;timestamp;P1;durP1;ratioP1;P2;durP2;ratioP2
44139;SDS011;29803;51.048;4.686;2022-12-24T00:00:13;44.92;;;6.28;;
44139;SDS011;29803;51.048;4.686;2022-12-24T00:02:43;42.22;;;5.50;;
44139;SDS011;29803;51.048;4.686;2022-12-24T00:05:14;44.92;;;6.28;;
44139;SDS011;29803;51.048;4.686;2022-12-24T00:07:45;44.17;;;7.03;;
44139;SDS011;29803;51.048;4.686;2022-12-24T00:10:15;43.22;;;6.35;;
44139;SDS011;29803;51.048;4.686;2022-12-24T00:12:46;58.13;;;7.15;;
44139;SDS011;29803;51.048;4.686;2022-12-24T00:15:16;41.00;;;6.78;;
44139;SDS011;29803;51.048;4.686;2022-12-24T00:17:46;52.08;;;8.40;;
44139;SDS011;29803;51.048;4.686;2022-12-24T00:20:17;43.53;;;5.55;;
44139;SDS011;29803;51.048;4.686;2022-12-24T00:22:47;40.17;;;6.72;;
44139;SDS011;29803;51.048;4.686;2022-12-24T00:25:18;41.25;;;7.20;;
44139;SDS011;29803;51.048;4.686;2022-12-24T00:27:48;40.58;;;6.72;;
44139;SDS011;29803;51.048;4.686;2022-12-24T00:30:19;30.83;;;4.97;;
44139;SDS011;29803;51.048;4.686;2022-12-24T00:32:49;47.60;;;6.43;;
44139;SDS011;29803;51.048;4.686;2022-12-24T00:35:20;49.80;;;7.00;;
44139;SDS011;29803;51.048;4.686;2022-12-24T00:37:51;44.13;;;5.47;;
44139;SDS011;29803;51.048;4.686;2022-12-24T00:40:21;33.75;;;7.18;;
44139;SDS011;29803;51.048;4.686;2022-12-24T00:42:51;39.85;;;7.22;;
44139;SDS011;29803;51.048;4.686;2022-12-24T00:45:22;39.88;;;5.07;;
44139;SDS011;29803;51.048;4.686;2022-12-24T00:47:52;48.67;;;6.82;;
44139;SDS011;29803;51.048;4.686;2022-12-24T00:50:23;46.53;;;6.38;;
44139;SDS011;29803;51.048;4.686;2022-12-24T00:52:53;42.20;;;6.38;;
44139;SDS011;29803;51.048;4.686;2022-12-24T00:55:24;46.13;;;7.00;;
44139;SDS011;29803;51.048;4.686;2022-12-24T00:57:54;45.47;;;6.05;;
44139;SDS011;29803;51.048;4.686;2022-12-24T01:00:25;42.58;;;6.15;;
44139;SDS011;29803;51.048;4.686;2022-12-24T01:02:55;38.17;;;5.70;;
44139;SDS011;29803;51.048;4.686;2022-12-24T01:05:26;29.30;;;6.32;;
44139;SDS011;29803;51.048;4.686;2022-12-24T01:07:56;36.75;;;7.18;;
44139;SDS011;29803;51.048;4.686;2022-12-24T01:10:26;52.22;;;7.28;;
44139;SDS011;29803;51.048;4.686;2022-12-24T01:13:00;47.65;;;5.78;;
44139;SDS011;29803;51.048;4.686;2022-12-24T01:15:31;42.90;;;6.53;;
44139;SDS011;29803;51.048;4.686;2022-12-24T01:18:02;40.10;;;5.90;;
44139;SDS011;29803;51.048;4.686;2022-12-24T01:20:32;32.50;;;5.63;;
44139;SDS011;29803;51.048;4.686;2022-12-24T01:23:03;35.38;;;5.43;;
44139;SDS011;29803;51.048;4.686;2022-12-24T01:25:33;34.75;;;5.22;;
44139;SDS011;29803;51.048;4.686;2022-12-24T01:28:06;42.13;;;5.05;;
44139;SDS011;29803;51.048;4.686;2022-12-24T01:30:36;43.85;;;5.05;;
44139;SDS011;29803;51.048;4.686;2022-12-24T01:33:06;41.85;;;5.97;;
44139;SDS011;29803;51.048;4.686;2022-12-24T01:35:41;30.65;;;4.68;;
44139;SDS011;29803;51.048;4.686;2022-12-24T01:38:12;42.22;;;5.88;;
44139;SDS011;29803;51.048;4.686;2022-12-24T01:40:44;38.10;;;5.20;;
44139;SDS011;29803;51.048;4.686;2022-12-24T01:43:33;41.38;;;5.15;;
44139;SDS011;29803;51.048;4.686;2022-12-24T01:46:04;30.60;;;4.80;;
44139;SDS011;29803;51.048;4.686;2022-12-24T01:48:44;16.08;;;3.42;;
44139;SDS011;29803;51.048;4.686;2022-12-24T01:54:08;28.52;;;5.38;;
44139;SDS011;29803;51.048;4.686;2022-12-24T01:56:46;21.65;;;4.68;;
44139;SDS011;29803;51.048;4.686;2022-12-24T01:59:21;31.25;;;5.05;;
44139;SDS011;29803;51.048;4.686;2022-12-24T02:01:51;24.00;;;3.75;;
44139;SDS011;29803;51.048;4.686;2022-12-24T02:04:33;37.70;;;5.03;;
44139;SDS011;29803;51.048;4.686;2022-12-24T02:07:23;34.88;;;4.72;;
44139;SDS011;29803;51.048;4.686;2022-12-24T02:09:56;32.08;;;4.88;;
44139;SDS011;29803;51.048;4.686;2022-12-24T02:12:29;23.60;;;4.20;;
44139;SDS011;29803;51.048;4.686;2022-12-24T02:15:04;38.63;;;5.03;;
44139;SDS011;29803;51.048;4.686;2022-12-24T02:26:26;30.50;;;5.20;;
44139;SDS011;29803;51.048;4.686;2022-12-24T02:32:09;32.50;;;5.57;;
44139;SDS011;29803;51.048;4.686;2022-12-24T02:34:52;41.15;;;5.72;;
44139;SDS011;29803;51.048;4.686;2022-12-24T02:37:36;39.50;;;6.28;;
44139;SDS011;29803;51.048;4.686;2022-12-24T02:40:12;46.47;;;5.97;;
44139;SDS011;29803;51.048;4.686;2022-12-24T02:42:47;36.60;;;5.65;;
44139;SDS011;29803;51.048;4.686;2022-12-24T02:45:32;46.85;;;7.22;;
44139;SDS011;29803;51.048;4.686;2022-12-24T02:48:05;44.13;;;6.50;;
44139;SDS011;29803;51.048;4.686;2022-12-24T02:50:36;43.55;;;7.32;;
44139;SDS011;29803;51.048;4.686;2022-12-24T02:53:08;45.55;;;5.50;;
44139;SDS011;29803;51.048;4.686;2022-12-24T02:55:45;35.70;;;5.13;;
44139;SDS011;29803;51.048;4.686;2022-12-24T03:08:04;36.65;;;5.82;;
44139;SDS011;29803;51.048;4.686;2022-12-24T03:10:58;44.13;;;6.97;;
44139;SDS011;29803;51.048;4.686;2022-12-24T03:13:32;37.42;;;7.22;;
44139;SDS011;29803;51.048;4.686;2022-12-24T03:16:05;46.22;;;6.72;;
44139;SDS011;29803;51.048;4.686;2022-12-24T03:18:39;44.70;;;6.50;;
44139;SDS011;29803;51.048;4.686;2022-12-24T03:21:24;50.33;;;7.18;;
44139;SDS011;29803;51.048;4.686;2022-12-24T03:23:58;43.22;;;8.18;;
44139;SDS011;29803;51.048;4.686;2022-12-24T03:26:29;50.42;;;7.53;;
44139;SDS011;29803;51.048;4.686;2022-12-24T03:29:07;39.42;;;7.82;;
44139;SDS011;29803;51.048;4.686;2022-12-24T03:31:39;41.13;;;6.90;;
44139;SDS011;29803;51.048;4.686;2022-12-24T03:34:13;37.95;;;6.38;;
44139;SDS011;29803;51.048;4.686;2022-12-24T03:36:45;40.35;;;7.55;;
44139;SDS011;29803;51.048;4.686;2022-12-24T03:39:17;36.22;;;6.13;;
44139;SDS011;29803;51.048;4.686;2022-12-24T03:41:48;50.22;;;6.60;;
44139;SDS011;29803;51.048;4.686;2022-12-24T03:44:18;40.92;;;6.57;;
44139;SDS011;29803;51.048;4.686;2022-12-24T03:46:49;30.98;;;5.90;;
44139;SDS011;29803;51.048;4.686;2022-12-24T03:49:19;39.65;;;6.68;;
44139;SDS011;29803;51.048;4.686;2022-12-24T03:51:50;28.63;;;5.90;;
44139;SDS011;29803;51.048;4.686;2022-12-24T03:54:20;29.63;;;5.95;;
44139;SDS011;29803;51.048;4.686;2022-12-24T03:56:51;27.52;;;5.18;;
44139;SDS011;29803;51.048;4.686;2022-12-24T03:59:21;30.75;;;6.15;;
44139;SDS011;29803;51.048;4.686;2022-12-24T04:01:52;39.22;;;5.60;;
44139;SDS011;29803;51.048;4.686;2022-12-24T04:04:22;38.58;;;6.05;;
44139;SDS011;29803;51.048;4.686;2022-12-24T04:06:53;29.95;;;6.15;;
44139;SDS011;29803;51.048;4.686;2022-12-24T04:09:23;40.15;;;6.30;;
44139;SDS011;29803;51.048;4.686;2022-12-24T04:11:54;34.33;;;5.85;;
44139;SDS011;29803;51.048;4.686;2022-12-24T04:14:24;37.60;;;6.13;;
44139;SDS011;29803;51.048;4.686;2022-12-24T04:16:55;31.35;;;6.00;;
44139;SDS011;29803;51.048;4.686;2022-12-24T04:19:25;30.10;;;5.68;;
44139;SDS011;29803;51.048;4.686;2022-12-24T04:21:56;30.73;;;6.03;;
44139;SDS011;29803;51.048;4.686;2022-12-24T04:24:26;39.95;;;6.38;;
44139;SDS011;29803;51.048;4.686;2022-12-24T04:26:57;34.97;;;5.70;;
44139;SDS011;29803;51.048;4.686;2022-12-24T04:29:27;35.65;;;5.72;;
44139;SDS011;29803;51.048;4.686;2022-12-24T04:31:57;34.40;;;6.60;;
44139;SDS011;29803;51.048;4.686;2022-12-24T04:34:28;32.90;;;5.88;;
44139;SDS011;29803;51.048;4.686;2022-12-24T04:36:58;51.05;;;6.45;;
44139;SDS011;29803;51.048;4.686;2022-12-24T04:39:29;38.25;;;6.88;;
44139;SDS011;29803;51.048;4.686;2022-12-24T04:41:59;38.33;;;7.13;;
44139;SDS011;29803;51.048;4.686;2022-12-24T04:44:30;50.03;;;7.55;;
44139;SDS011;29803;51.048;4.686;2022-12-24T04:47:00;32.88;;;5.88;;
44139;SDS011;29803;51.048;4.686;2022-12-24T04:49:31;43.97;;;6.97;;
44139;SDS011;29803;51.048;4.686;2022-12-24T04:52:01;44.65;;;6.30;;
44139;SDS011;29803;51.048;4.686;2022-12-24T04:54:31;36.70;;;6.63;;
44139;SDS011;29803;51.048;4.686;2022-12-24T04:57:02;43.20;;;6.30;;
44139;SDS011;29803;51.048;4.686;2022-12-24T04:59:32;33.33;;;6.55;;
44139;SDS011;29803;51.048;4.686;2022-12-24T05:02:03;49.03;;;6.75;;
44139;SDS011;29803;51.048;4.686;2022-12-24T05:04:33;46.25;;;7.50;;
44139;SDS011;29803;51.048;4.686;2022-12-24T05:07:04;43.58;;;6.78;;
44139;SDS011;29803;51.048;4.686;2022-12-24T05:09:34;49.05;;;6.57;;
44139;SDS011;29803;51.048;4.686;2022-12-24T05:12:05;50.92;;;6.90;;
44139;SDS011;29803;51.048;4.686;2022-12-24T05:14:35;37.67;;;6.45;;
44139;SDS011;29803;51.048;4.686;2022-12-24T05:17:06;46.67;;;7.88;;
44139;SDS011;29803;51.048;4.686;2022-12-24T05:19:36;35.45;;;6.10;;
44139;SDS011;29803;51.048;4.686;2022-12-24T05:22:07;41.65;;;6.53;;
44139;SDS011;29803;51.048;4.686;2022-12-24T05:25:03;43.45;;;6.45;;
44139;SDS011;29803;51.048;4.686;2022-12-24T05:27:53;37.70;;;5.28;;
44139;SDS011;29803;51.048;4.686;2022-12-24T05:30:23;40.33;;;7.32;;
44139;SDS011;29803;51.048;4.686;2022-12-24T05:32:54;49.15;;;5.97;;
44139;SDS011;29803;51.048;4.686;2022-12-24T05:35:24;57.72;;;8.52;;
44139;SDS011;29803;51.048;4.686;2022-12-24T05:37:56;49.67;;;6.93;;
44139;SDS011;29803;51.048;4.686;2022-12-24T05:40:27;36.45;;;5.95;;
44139;SDS011;29803;51.048;4.686;2022-12-24T05:42:57;44.80;;;6.90;;
44139;SDS011;29803;51.048;4.686;2022-12-24T05:45:28;59.08;;;8.18;;
44139;SDS011;29803;51.048;4.686;2022-12-24T05:47:58;37.15;;;6.05;;
44139;SDS011;29803;51.048;4.686;2022-12-24T05:50:29;43.72;;;6.20;;
44139;SDS011;29803;51.048;4.686;2022-12-24T05:52:59;45.50;;;5.85;;
44139;SDS011;29803;51.048;4.686;2022-12-24T05:55:30;43.72;;;6.82;;
44139;SDS011;29803;51.048;4.686;2022-12-24T05:58:00;38.70;;;5.45;;
44139;SDS011;29803;51.048;4.686;2022-12-24T06:00:31;60.45;;;8.35;;
44139;SDS011;29803;51.048;4.686;2022-12-24T06:03:01;38.22;;;5.40;;
44139;SDS011;29803;51.048;4.686;2022-12-24T06:05:32;60.75;;;6.32;;
44139;SDS011;29803;51.048;4.686;2022-12-24T06:08:02;53.42;;;7.07;;
44139;SDS011;29803;51.048;4.686;2022-12-24T06:10:33;37.03;;;6.00;;
44139;SDS011;29803;51.048;4.686;2022-12-24T06:13:04;47.47;;;5.78;;
44139;SDS011;29803;51.048;4.686;2022-12-24T06:15:34;35.95;;;6.70;;
44139;SDS011;29803;51.048;4.686;2022-12-24T06:18:05;45.10;;;6.05;;
44139;SDS011;29803;51.048;4.686;2022-12-24T06:20:35;50.97;;;5.95;;
44139;SDS011;29803;51.048;4.686;2022-12-24T06:23:06;39.70;;;5.82;;
44139;SDS011;29803;51.048;4.686;2022-12-24T06:25:36;42.63;;;7.40;;
44139;SDS011;29803;51.048;4.686;2022-12-24T06:28:06;39.92;;;5.82;;
44139;SDS011;29803;51.048;4.686;2022-12-24T06:30:37;51.60;;;8.35;;
44139;SDS011;29803;51.048;4.686;2022-12-24T06:33:07;58.67;;;7.40;;
44139;SDS011;29803;51.048;4.686;2022-12-24T06:35:38;37.22;;;7.15;;
44139;SDS011;29803;51.048;4.686;2022-12-24T06:38:08;49.28;;;7.82;;
44139;SDS011;29803;51.048;4.686;2022-12-24T06:40:39;51.25;;;7.35;;
44139;SDS011;29803;51.048;4.686;2022-12-24T06:43:11;49.58;;;6.45;;
44139;SDS011;29803;51.048;4.686;2022-12-24T06:45:43;46.00;;;7.20;;
44139;SDS011;29803;51.048;4.686;2022-12-24T06:48:15;35.53;;;6.20;;
44139;SDS011;29803;51.048;4.686;2022-12-24T06:50:46;43.20;;;7.20;;
44139;SDS011;29803;51.048;4.686;2022-12-24T06:53:17;50.83;;;6.07;;
44139;SDS011;29803;51.048;4.686;2022-12-24T06:55:47;42.90;;;7.68;;
44139;SDS011;29803;51.048;4.686;2022-12-24T06:58:18;31.33;;;5.55;;
44139;SDS011;29803;51.048;4.686;2022-12-24T07:00:48;43.17;;;6.82;;
44139;SDS011;29803;51.048;4.686;2022-12-24T07:03:18;43.67;;;7.25;;
44139;SDS011;29803;51.048;4.686;2022-12-24T07:05:49;47.45;;;6.75;;
44139;SDS011;29803;51.048;4.686;2022-12-24T07:08:19;42.92;;;6.10;;
44139;SDS011;29803;51.048;4.686;2022-12-24T07:10:50;51.75;;;7.38;;
44139;SDS011;29803;51.048;4.686;2022-12-24T07:13:22;49.08;;;6.82;;
44139;SDS011;29803;51.048;4.686;2022-12-24T07:15:56;57.42;;;8.80;;
44139;SDS011;29803;51.048;4.686;2022-12-24T07:20:58;39.75;;;7.82;;
44139;SDS011;29803;51.048;4.686;2022-12-24T07:23:30;44.92;;;6.70;;
44139;SDS011;29803;51.048;4.686;2022-12-24T07:26:01;54.58;;;7.72;;
44139;SDS011;29803;51.048;4.686;2022-12-24T07:28:33;49.25;;;7.45;;
44139;SDS011;29803;51.048;4.686;2022-12-24T07:31:03;49.05;;;8.07;;
44139;SDS011;29803;51.048;4.686;2022-12-24T07:33:34;35.67;;;6.63;;
44139;SDS011;29803;51.048;4.686;2022-12-24T07:36:05;57.35;;;5.85;;
44139;SDS011;29803;51.048;4.686;2022-12-24T07:38:37;61.63;;;8.45;;
44139;SDS011;29803;51.048;4.686;2022-12-24T07:41:08;41.58;;;6.53;;
44139;SDS011;29803;51.048;4.686;2022-12-24T07:43:38;40.28;;;6.35;;
44139;SDS011;29803;51.048;4.686;2022-12-24T07:46:09;48.72;;;8.45;;
44139;SDS011;29803;51.048;4.686;2022-12-24T07:48:39;45.83;;;6.68;;
44139;SDS011;29803;51.048;4.686;2022-12-24T07:51:10;54.97;;;7.13;;
44139;SDS011;29803;51.048;4.686;2022-12-24T07:53:40;54.55;;;8.00;;
44139;SDS011;29803;51.048;4.686;2022-12-24T07:56:16;55.85;;;7.35;;
44139;SDS011;29803;51.048;4.686;2022-12-24T07:58:48;47.33;;;6.53;;
44139;SDS011;29803;51.048;4.686;2022-12-24T08:01:19;45.60;;;6.55;;
44139;SDS011;29803;51.048;4.686;2022-12-24T08:03:49;43.85;;;6.07;;
44139;SDS011;29803;51.048;4.686;2022-12-24T08:06:23;44.72;;;7.75;;
44139;SDS011;29803;51.048;4.686;2022-12-24T08:08:53;44.05;;;8.13;;
44139;SDS011;29803;51.048;4.686;2022-12-24T08:11:24;45.35;;;8.68;;
44139;SDS011;29803;51.048;4.686;2022-12-24T08:13:54;56.88;;;7.93;;
44139;SDS011;29803;51.048;4.686;2022-12-24T08:16:25;49.67;;;6.68;;
44139;SDS011;29803;51.048;4.686;2022-12-24T08:18:55;65.50;;;7.72;;
44139;SDS011;29803;51.048;4.686;2022-12-24T08:21:26;56.92;;;8.40;;
44139;SDS011;29803;51.048;4.686;2022-12-24T08:23:56;37.67;;;7.28;;
44139;SDS011;29803;51.048;4.686;2022-12-24T08:26:27;46.25;;;7.68;;
44139;SDS011;29803;51.048;4.686;2022-12-24T08:28:58;47.17;;;8.35;;
44139;SDS011;29803;51.048;4.686;2022-12-24T08:31:29;40.25;;;6.18;;
44139;SDS011;29803;51.048;4.686;2022-12-24T08:33:59;46.30;;;7.22;;
44139;SDS011;29803;51.048;4.686;2022-12-24T08:36:30;49.97;;;6.97;;
44139;SDS011;29803;51.048;4.686;2022-12-24T08:39:00;45.25;;;7.90;;
44139;SDS011;29803;51.048;4.686;2022-12-24T08:41:32;54.90;;;8.07;;
44139;SDS011;29803;51.048;4.686;2022-12-24T08:44:03;47.58;;;8.30;;
44139;SDS011;29803;51.048;4.686;2022-12-24T08:46:33;54.58;;;8.32;;
44139;SDS011;29803;51.048;4.686;2022-12-24T08:49:04;48.20;;;7.32;;
44139;SDS011;29803;51.048;4.686;2022-12-24T08:51:34;47.55;;;6.55;;
44139;SDS011;29803;51.048;4.686;2022-12-24T08:54:05;41.90;;;6.80;;
44139;SDS011;29803;51.048;4.686;2022-12-24T08:56:35;40.38;;;6.75;;
44139;SDS011;29803;51.048;4.686;2022-12-24T08:59:06;30.55;;;6.90;;
44139;SDS011;29803;51.048;4.686;2022-12-24T09:01:36;44.38;;;6.25;;
44139;SDS011;29803;51.048;4.686;2022-12-24T09:04:07;44.88;;;7.28;;
44139;SDS011;29803;51.048;4.686;2022-12-24T09:06:38;37.10;;;6.57;;
44139;SDS011;29803;51.048;4.686;2022-12-24T09:09:09;37.75;;;7.10;;
44139;SDS011;29803;51.048;4.686;2022-12-24T09:11:39;65.38;;;8.30;;
44139;SDS011;29803;51.048;4.686;2022-12-24T09:14:10;50.75;;;7.38;;
44139;SDS011;29803;51.048;4.686;2022-12-24T09:16:41;58.45;;;7.15;;
44139;SDS011;29803;51.048;4.686;2022-12-24T09:19:11;49.28;;;7.32;;
44139;SDS011;29803;51.048;4.686;2022-12-24T09:21:42;54.85;;;8.15;;
44139;SDS011;29803;51.048;4.686;2022-12-24T09:24:12;52.83;;;7.47;;
44139;SDS011;29803;51.048;4.686;2022-12-24T09:26:43;48.75;;;6.93;;
44139;SDS011;29803;51.048;4.686;2022-12-24T09:29:15;44.67;;;7.47;;
44139;SDS011;29803;51.048;4.686;2022-12-24T09:31:45;52.58;;;7.78;;
44139;SDS011;29803;51.048;4.686;2022-12-24T09:34:16;35.38;;;6.30;;
44139;SDS011;29803;51.048;4.686;2022-12-24T09:36:46;50.38;;;7.70;;
44139;SDS011;29803;51.048;4.686;2022-12-24T09:39:17;40.80;;;7.80;;
44139;SDS011;29803;51.048;4.686;2022-12-24T09:41:55;42.72;;;7.07;;
44139;SDS011;29803;51.048;4.686;2022-12-24T09:49:58;47.35;;;6.75;;
44139;SDS011;29803;51.048;4.686;2022-12-24T09:52:32;49.78;;;6.70;;
44139;SDS011;29803;51.048;4.686;2022-12-24T09:55:24;43.67;;;6.72;;
44139;SDS011;29803;51.048;4.686;2022-12-24T09:57:57;52.53;;;6.47;;
44139;SDS011;29803;51.048;4.686;2022-12-24T10:00:32;39.63;;;5.97;;
44139;SDS011;29803;51.048;4.686;2022-12-24T10:03:13;38.00;;;6.50;;
44139;SDS011;29803;51.048;4.686;2022-12-24T10:08:27;40.15;;;6.50;;
44139;SDS011;29803;51.048;4.686;2022-12-24T10:11:08;52.85;;;8.48;;
44139;SDS011;29803;51.048;4.686;2022-12-24T10:16:48;52.25;;;7.93;;
44139;SDS011;29803;51.048;4.686;2022-12-24T10:22:26;38.92;;;7.38;;
44139;SDS011;29803;51.048;4.686;2022-12-24T10:25:32;34.20;;;7.78;;
44139;SDS011;29803;51.048;4.686;2022-12-24T10:28:18;46.63;;;7.50;;
44139;SDS011;29803;51.048;4.686;2022-12-24T10:30:54;38.45;;;7.55;;
44139;SDS011;29803;51.048;4.686;2022-12-24T10:33:34;39.03;;;6.57;;
44139;SDS011;29803;51.048;4.686;2022-12-24T10:36:11;45.25;;;6.13;;
44139;SDS011;29803;51.048;4.686;2022-12-24T10:38:47;41.53;;;6.13;;
44139;SDS011;29803;51.048;4.686;2022-12-24T10:41:17;41.20;;;7.38;;
44139;SDS011;29803;51.048;4.686;2022-12-24T10:43:48;34.55;;;6.30;;
44139;SDS011;29803;51.048;4.686;2022-12-24T10:46:23;43.40;;;7.60;;
44139;SDS011;29803;51.048;4.686;2022-12-24T10:49:10;38.60;;;7.10;;
44139;SDS011;29803;51.048;4.686;2022-12-24T10:51:50;36.13;;;6.15;;
44139;SDS011;29803;51.048;4.686;2022-12-24T10:54:30;40.28;;;7.03;;
44139;SDS011;29803;51.048;4.686;2022-12-24T10:57:21;48.90;;;7.35;;
44139;SDS011;29803;51.048;4.686;2022-12-24T10:59:54;32.58;;;6.43;;
44139;SDS011;29803;51.048;4.686;2022-12-24T11:02:30;44.08;;;6.63;;
44139;SDS011;29803;51.048;4.686;2022-12-24T11:05:06;47.92;;;6.68;;
44139;SDS011;29803;51.048;4.686;2022-12-24T11:08:02;43.22;;;6.78;;
44139;SDS011;29803;51.048;4.686;2022-12-24T11:10:43;45.47;;;7.20;;
44139;SDS011;29803;51.048;4.686;2022-12-24T11:13:33;41.40;;;5.50;;
44139;SDS011;29803;51.048;4.686;2022-12-24T11:18:56;41.80;;;7.07;;
44139;SDS011;29803;51.048;4.686;2022-12-24T11:24:06;45.03;;;7.45;;
44139;SDS011;29803;51.048;4.686;2022-12-24T11:26:47;43.40;;;6.28;;
44139;SDS011;29803;51.048;4.686;2022-12-24T11:29:22;45.47;;;7.50;;
44139;SDS011;29803;51.048;4.686;2022-12-24T11:34:50;39.63;;;6.25;;
44139;SDS011;29803;51.048;4.686;2022-12-24T11:37:22;49.30;;;8.00;;
44139;SDS011;29803;51.048;4.686;2022-12-24T11:39:59;40.50;;;7.47;;
44139;SDS011;29803;51.048;4.686;2022-12-24T11:42:32;23.25;;;6.40;;
44139;SDS011;29803;51.048;4.686;2022-12-24T11:47:57;40.13;;;5.85;;
44139;SDS011;29803;51.048;4.686;2022-12-24T11:50:32;49.38;;;6.22;;
44139;SDS011;29803;51.048;4.686;2022-12-24T11:53:08;38.35;;;6.35;;
44139;SDS011;29803;51.048;4.686;2022-12-24T12:03:58;44.50;;;7.28;;
44139;SDS011;29803;51.048;4.686;2022-12-24T12:09:09;46.00;;;6.35;;
44139;SDS011;29803;51.048;4.686;2022-12-24T12:11:43;43.70;;;6.88;;
44139;SDS011;29803;51.048;4.686;2022-12-24T12:14:20;47.10;;;6.80;;
44139;SDS011;29803;51.048;4.686;2022-12-24T12:20:18;44.67;;;8.15;;
44139;SDS011;29803;51.048;4.686;2022-12-24T12:26:00;43.38;;;7.18;;
44139;SDS011;29803;51.048;4.686;2022-12-24T12:33:54;37.40;;;8.63;;
44139;SDS011;29803;51.048;4.686;2022-12-24T12:36:31;42.63;;;9.20;;
44139;SDS011;29803;51.048;4.686;2022-12-24T12:39:07;44.53;;;7.70;;
44139;SDS011;29803;51.048;4.686;2022-12-24T12:55:38;34.85;;;6.50;;
44139;SDS011;29803;51.048;4.686;2022-12-24T12:58:23;43.05;;;6.88;;
44139;SDS011;29803;51.048;4.686;2022-12-24T13:00:58;43.67;;;7.55;;
44139;SDS011;29803;51.048;4.686;2022-12-24T13:12:05;43.75;;;8.82;;
44139;SDS011;29803;51.048;4.686;2022-12-24T13:15:21;100.10;;;28.30;;
44139;SDS011;29803;51.048;4.686;2022-12-24T13:20:58;46.08;;;14.38;;
44139;SDS011;29803;51.048;4.686;2022-12-24T13:23:29;50.05;;;12.82;;
44139;SDS011;29803;51.048;4.686;2022-12-24T13:25:59;45.92;;;7.95;;
44139;SDS011;29803;51.048;4.686;2022-12-24T13:28:40;35.45;;;7.85;;
44139;SDS011;29803;51.048;4.686;2022-12-24T13:33:55;40.90;;;7.85;;
44139;SDS011;29803;51.048;4.686;2022-12-24T13:36:59;40.70;;;7.50;;
44139;SDS011;29803;51.048;4.686;2022-12-24T13:58:54;59.67;;;15.93;;
44139;SDS011;29803;51.048;4.686;2022-12-24T14:01:46;33.15;;;7.15;;
44139;SDS011;29803;51.048;4.686;2022-12-24T14:04:20;33.28;;;6.93;;
44139;SDS011;29803;51.048;4.686;2022-12-24T14:06:54;33.88;;;6.28;;
44139;SDS011;29803;51.048;4.686;2022-12-24T14:09:28;40.15;;;7.25;;
44139;SDS011;29803;51.048;4.686;2022-12-24T14:14:36;37.53;;;7.95;;
44139;SDS011;29803;51.048;4.686;2022-12-24T14:17:13;35.13;;;7.15;;
44139;SDS011;29803;51.048;4.686;2022-12-24T14:22:37;46.13;;;7.72;;
44139;SDS011;29803;51.048;4.686;2022-12-24T14:25:20;45.72;;;7.63;;
44139;SDS011;29803;51.048;4.686;2022-12-24T14:27:55;34.17;;;7.40;;
44139;SDS011;29803;51.048;4.686;2022-12-24T14:30:32;38.17;;;7.97;;
44139;SDS011;29803;51.048;4.686;2022-12-24T14:33:02;36.90;;;6.65;;
44139;SDS011;29803;51.048;4.686;2022-12-24T14:35:34;35.92;;;7.97;;
44139;SDS011;29803;51.048;4.686;2022-12-24T14:38:14;40.58;;;8.15;;
44139;SDS011;29803;51.048;4.686;2022-12-24T14:41:01;37.10;;;8.07;;
44139;SDS011;29803;51.048;4.686;2022-12-24T14:59:49;33.38;;;8.63;;
44139;SDS011;29803;51.048;4.686;2022-12-24T15:05:22;44.70;;;8.05;;
44139;SDS011;29803;51.048;4.686;2022-12-24T15:07:59;34.13;;;7.55;;
44139;SDS011;29803;51.048;4.686;2022-12-24T15:10:35;36.95;;;7.80;;
44139;SDS011;29803;51.048;4.686;2022-12-24T15:13:42;45.72;;;9.27;;
44139;SDS011;29803;51.048;4.686;2022-12-24T15:16:07;54.83;;;7.57;;
44139;SDS011;29803;51.048;4.686;2022-12-24T15:18:42;39.10;;;7.50;;
44139;SDS011;29803;51.048;4.686;2022-12-24T15:21:27;49.60;;;9.88;;
44139;SDS011;29803;51.048;4.686;2022-12-24T15:24:00;28.45;;;7.22;;
44139;SDS011;29803;51.048;4.686;2022-12-24T15:26:33;38.83;;;6.75;;
44139;SDS011;29803;51.048;4.686;2022-12-24T15:29:12;29.70;;;7.63;;
44139;SDS011;29803;51.048;4.686;2022-12-24T15:31:54;47.05;;;8.98;;
44139;SDS011;29803;51.048;4.686;2022-12-24T15:34:36;38.85;;;7.78;;
44139;SDS011;29803;51.048;4.686;2022-12-24T15:37:28;44.10;;;9.13;;
44139;SDS011;29803;51.048;4.686;2022-12-24T15:42:40;46.53;;;9.38;;
44139;SDS011;29803;51.048;4.686;2022-12-24T15:47:54;27.52;;;8.75;;
44139;SDS011;29803;51.048;4.686;2022-12-24T15:50:29;38.35;;;9.05;;
44139;SDS011;29803;51.048;4.686;2022-12-24T15:53:03;49.58;;;9.55;;
44139;SDS011;29803;51.048;4.686;2022-12-24T15:55:39;39.03;;;8.80;;
44139;SDS011;29803;51.048;4.686;2022-12-24T15:58:17;53.83;;;10.18;;
44139;SDS011;29803;51.048;4.686;2022-12-24T16:01:00;46.17;;;9.27;;
44139;SDS011;29803;51.048;4.686;2022-12-24T16:06:19;32.60;;;7.78;;
44139;SDS011;29803;51.048;4.686;2022-12-24T16:08:51;36.85;;;8.25;;
44139;SDS011;29803;51.048;4.686;2022-12-24T16:11:22;44.17;;;8.60;;
44139;SDS011;29803;51.048;4.686;2022-12-24T16:16:43;34.08;;;7.55;;
44139;SDS011;29803;51.048;4.686;2022-12-24T16:19:20;35.97;;;8.13;;
44139;SDS011;29803;51.048;4.686;2022-12-24T16:24:26;47.72;;;9.85;;
44139;SDS011;29803;51.048;4.686;2022-12-24T16:26:58;53.42;;;10.43;;
44139;SDS011;29803;51.048;4.686;2022-12-24T16:29:29;49.42;;;10.70;;
44139;SDS011;29803;51.048;4.686;2022-12-24T16:31:59;40.92;;;9.93;;
44139;SDS011;29803;51.048;4.686;2022-12-24T16:34:30;47.60;;;9.00;;
44139;SDS011;29803;51.048;4.686;2022-12-24T16:37:01;41.95;;;9.68;;
44139;SDS011;29803;51.048;4.686;2022-12-24T16:39:32;49.97;;;9.98;;
44139;SDS011;29803;51.048;4.686;2022-12-24T16:42:04;37.63;;;10.10;;
44139;SDS011;29803;51.048;4.686;2022-12-24T16:44:52;45.10;;;10.32;;
44139;SDS011;29803;51.048;4.686;2022-12-24T16:47:25;34.53;;;9.82;;
44139;SDS011;29803;51.048;4.686;2022-12-24T16:50:00;46.88;;;9.20;;
44139;SDS011;29803;51.048;4.686;2022-12-24T16:52:32;29.65;;;9.00;;
44139;SDS011;29803;51.048;4.686;2022-12-24T16:55:03;30.63;;;8.40;;
44139;SDS011;29803;51.048;4.686;2022-12-24T16:57:34;49.85;;;9.05;;
44139;SDS011;29803;51.048;4.686;2022-12-24T17:00:17;42.67;;;10.00;;
44139;SDS011;29803;51.048;4.686;2022-12-24T17:02:50;37.55;;;9.65;;
44139;SDS011;29803;51.048;4.686;2022-12-24T17:05:22;38.83;;;9.27;;
44139;SDS011;29803;51.048;4.686;2022-12-24T17:07:53;37.13;;;10.07;;
44139;SDS011;29803;51.048;4.686;2022-12-24T17:10:23;47.58;;;12.10;;
44139;SDS011;29803;51.048;4.686;2022-12-24T17:12:54;50.55;;;13.00;;
44139;SDS011;29803;51.048;4.686;2022-12-24T17:15:25;49.85;;;11.98;;
44139;SDS011;29803;51.048;4.686;2022-12-24T17:17:55;53.38;;;12.38;;
44139;SDS011;29803;51.048;4.686;2022-12-24T17:20:26;70.15;;;15.55;;
44139;SDS011;29803;51.048;4.686;2022-12-24T17:22:56;69.18;;;16.00;;
44139;SDS011;29803;51.048;4.686;2022-12-24T17:25:27;52.55;;;14.95;;
44139;SDS011;29803;51.048;4.686;2022-12-24T17:27:58;56.35;;;14.70;;
44139;SDS011;29803;51.048;4.686;2022-12-24T17:30:28;60.97;;;14.50;;
44139;SDS011;29803;51.048;4.686;2022-12-24T17:32:59;54.53;;;13.65;;
44139;SDS011;29803;51.048;4.686;2022-12-24T17:35:29;50.63;;;13.05;;
44139;SDS011;29803;51.048;4.686;2022-12-24T17:38:00;41.55;;;12.93;;
44139;SDS011;29803;51.048;4.686;2022-12-24T17:40:31;49.95;;;12.85;;
44139;SDS011;29803;51.048;4.686;2022-12-24T17:43:01;52.83;;;11.65;;
44139;SDS011;29803;51.048;4.686;2022-12-24T17:45:32;36.95;;;11.95;;
44139;SDS011;29803;51.048;4.686;2022-12-24T17:48:02;46.22;;;11.07;;
44139;SDS011;29803;51.048;4.686;2022-12-24T17:50:36;39.72;;;10.93;;